createdAt,value
2023-01-22T00:00:40.373Z,13.50
2023-01-22T00:03:07.826Z,11.73
2023-01-22T00:05:35.045Z,13.82
2023-01-22T00:08:02.441Z,12.23
2023-01-22T00:10:29.685Z,13.63
2023-01-22T00:12:56.869Z,12.35
2023-01-22T00:15:24.352Z,12.25
2023-01-22T00:17:51.609Z,14.60
2023-01-22T00:20:19.281Z,13.70
2023-01-22T00:22:46.684Z,12.97
2023-01-22T00:25:13.866Z,12.70
2023-01-22T00:27:42.061Z,13.68
2023-01-22T00:30:09.524Z,12.07
2023-01-22T00:32:36.815Z,10.55
2023-01-22T00:35:04.643Z,13.23
2023-01-22T00:37:31.975Z,11.25
2023-01-22T00:40:00.257Z,13.02
2023-01-22T00:42:27.611Z,11.85
2023-01-22T00:44:54.848Z,13.27
2023-01-22T00:47:22.063Z,13.67
2023-01-22T00:49:49.268Z,13.50
2023-01-22T00:52:18.213Z,12.82
2023-01-22T00:54:45.688Z,12.80
2023-01-22T00:57:12.982Z,11.35
2023-01-22T00:59:40.204Z,13.07
2023-01-22T01:02:07.547Z,12.05
2023-01-22T01:04:34.836Z,12.43
2023-01-22T01:07:02.068Z,11.57
2023-01-22T01:09:29.457Z,12.30
2023-01-22T01:11:56.662Z,11.60
2023-01-22T01:14:24.218Z,11.95
2023-01-22T01:16:51.731Z,10.63
2023-01-22T01:19:20.531Z,11.35
2023-01-22T01:21:51.441Z,12.82
2023-01-22T01:24:18.712Z,9.83
2023-01-22T01:26:46.056Z,10.98
2023-01-22T01:29:13.332Z,11.18
2023-01-22T01:31:40.651Z,12.52
2023-01-22T01:34:09.056Z,8.40
2023-01-22T01:36:48.423Z,11.17
2023-01-22T01:39:17.098Z,12.85
2023-01-22T01:41:44.395Z,11.98
2023-01-22T01:44:16.344Z,11.48
2023-01-22T01:46:57.727Z,11.55
2023-01-22T01:49:43.914Z,11.17
2023-01-22T01:52:12.752Z,9.90
2023-01-22T01:54:42.789Z,10.52
2023-01-22T01:57:14.990Z,11.32
2023-01-22T01:59:43.271Z,11.02
2023-01-22T02:02:10.644Z,10.43
2023-01-22T02:04:38.042Z,11.07
2023-01-22T02:07:05.995Z,9.98
2023-01-22T02:09:34.726Z,11.82
2023-01-22T02:12:03.268Z,10.60
2023-01-22T02:14:33.785Z,11.50
2023-01-22T02:17:12.470Z,11.68
2023-01-22T02:19:40.249Z,10.57
2023-01-22T02:22:12.738Z,8.52
2023-01-22T02:24:40.089Z,11.18
2023-01-22T02:27:09.110Z,9.83
2023-01-22T02:29:37.006Z,9.77
2023-01-22T02:32:04.349Z,11.27
2023-01-22T02:34:31.592Z,9.80
2023-01-22T02:37:01.091Z,10.43
2023-01-22T02:39:28.539Z,9.63
2023-01-22T02:41:55.789Z,9.50
2023-01-22T02:44:23.126Z,10.48
2023-01-22T02:46:50.345Z,10.15
2023-01-22T02:49:17.338Z,9.55
2023-01-22T02:51:45.062Z,9.93
2023-01-22T02:54:12.742Z,10.10
2023-01-22T02:56:39.692Z,10.70
2023-01-22T02:59:06.982Z,10.02
2023-01-22T03:01:34.333Z,9.63
2023-01-22T03:04:13.268Z,9.88
2023-01-22T03:06:44.090Z,9.10
2023-01-22T03:09:13.063Z,9.63
2023-01-22T03:11:42.259Z,10.02
2023-01-22T03:14:32.352Z,9.30
2023-01-22T03:17:18.946Z,9.50
2023-01-22T03:20:04.664Z,9.45
2023-01-22T03:22:31.912Z,9.70
2023-01-22T03:25:01.281Z,9.07
2023-01-22T03:27:29.372Z,8.88
2023-01-22T03:29:56.919Z,9.43
2023-01-22T03:32:24.725Z,8.18
2023-01-22T03:34:53.640Z,8.77
2023-01-22T03:37:22.711Z,9.07
2023-01-22T03:39:53.196Z,8.57
2023-01-22T03:42:32.820Z,8.45
2023-01-22T03:45:00.235Z,9.02
2023-01-22T03:47:27.847Z,8.13
2023-01-22T03:49:55.208Z,7.75
2023-01-22T03:52:22.432Z,8.82
2023-01-22T03:54:49.672Z,7.65
2023-01-22T03:57:17.853Z,7.75
2023-01-22T03:59:45.144Z,8.17
2023-01-22T04:02:12.149Z,8.57
2023-01-22T04:04:52.460Z,7.53
2023-01-22T04:07:19.393Z,6.82
2023-01-22T04:09:47.491Z,7.43
2023-01-22T04:12:14.861Z,7.68
2023-01-22T04:14:43.228Z,7.18
2023-01-22T04:17:11.329Z,6.93
2023-01-22T04:19:51.246Z,7.17
2023-01-22T04:22:37.995Z,7.00
2023-01-22T04:25:06.729Z,7.68
2023-01-22T04:27:37.673Z,7.35
2023-01-22T04:30:06.156Z,7.78
2023-01-22T04:32:33.833Z,7.18
2023-01-22T04:35:24.347Z,7.00
2023-01-22T04:37:54.951Z,6.20
2023-01-22T04:40:23.051Z,7.95
2023-01-22T04:42:50.516Z,7.17
2023-01-22T04:45:17.918Z,6.63
2023-01-22T04:47:47.345Z,6.95
2023-01-22T04:50:26.384Z,8.05
2023-01-22T04:52:54.916Z,6.00
2023-01-22T04:55:23.062Z,6.90
2023-01-22T04:58:01.261Z,7.15
2023-01-22T05:00:30.605Z,7.68
2023-01-22T05:03:03.052Z,7.27
2023-01-22T05:05:32.122Z,7.20
2023-01-22T05:07:59.888Z,5.75
2023-01-22T05:10:28.097Z,7.38
2023-01-22T05:12:55.590Z,6.80
2023-01-22T05:15:25.270Z,6.83
2023-01-22T05:17:56.256Z,8.13
2023-01-22T05:20:23.696Z,7.30
2023-01-22T05:22:50.982Z,7.20
2023-01-22T05:25:22.516Z,7.57
2023-01-22T05:27:49.907Z,7.20
2023-01-22T05:30:28.909Z,6.40
2023-01-22T05:33:01.169Z,7.28
2023-01-22T05:35:29.728Z,6.65
2023-01-22T05:37:57.657Z,7.18
2023-01-22T05:40:25.061Z,6.57
2023-01-22T05:42:53.536Z,7.07
2023-01-22T05:45:22.028Z,8.02
2023-01-22T05:48:08.207Z,8.13
2023-01-22T05:50:54.045Z,8.23
2023-01-22T05:53:21.406Z,7.17
2023-01-22T05:55:48.425Z,7.20
2023-01-22T05:58:15.673Z,6.97
2023-01-22T06:00:45.426Z,7.50
2023-01-22T06:03:13.706Z,7.18
2023-01-22T06:05:58.357Z,6.80
2023-01-22T06:08:26.092Z,6.43
2023-01-22T06:11:02.380Z,7.47
2023-01-22T06:13:30.389Z,7.78
2023-01-22T06:16:02.233Z,7.97
2023-01-22T06:18:47.893Z,6.97
2023-01-22T06:21:16.697Z,8.05
2023-01-22T06:23:44.810Z,7.13
2023-01-22T06:26:13.297Z,7.25
2023-01-22T06:28:41.797Z,7.57
2023-01-22T06:31:09.341Z,7.73
2023-01-22T06:33:38.098Z,7.53
2023-01-22T06:36:06.043Z,6.95
2023-01-22T06:38:33.426Z,7.10
2023-01-22T06:41:03.814Z,6.35
2023-01-22T06:43:32.906Z,6.93
2023-01-22T06:46:00.166Z,8.02
2023-01-22T06:48:54.282Z,7.82
2023-01-22T06:51:22.547Z,7.32
2023-01-22T06:53:50.005Z,7.05
2023-01-22T06:56:19.612Z,8.13
2023-01-22T06:58:46.943Z,7.18
2023-01-22T07:01:14.151Z,7.13
2023-01-22T07:03:42.419Z,6.28
2023-01-22T07:06:10.185Z,6.53
2023-01-22T07:08:37.396Z,6.33
2023-01-22T07:11:07.779Z,6.63
2023-01-22T07:13:35.386Z,7.07
2023-01-22T07:16:06.009Z,6.43
2023-01-22T07:18:33.402Z,6.00
2023-01-22T07:21:02.163Z,7.67
2023-01-22T07:23:30.127Z,8.32
2023-01-22T07:25:57.705Z,9.55
2023-01-22T07:28:25.145Z,6.55
2023-01-22T07:30:52.634Z,7.80
2023-01-22T07:33:19.960Z,6.90
2023-01-22T07:35:54.897Z,7.50
2023-01-22T07:38:22.304Z,7.10
2023-01-22T07:40:49.757Z,8.10
2023-01-22T07:43:17.777Z,6.32
2023-01-22T07:45:45.045Z,6.37
2023-01-22T07:48:12.725Z,8.15
2023-01-22T07:50:40.444Z,8.50
2023-01-22T07:53:08.213Z,7.28
2023-01-22T07:55:35.416Z,6.57
2023-01-22T07:58:04.800Z,6.23
2023-01-22T08:00:32.618Z,7.07
2023-01-22T08:02:59.988Z,6.80
2023-01-22T08:05:27.190Z,6.28
2023-01-22T08:07:54.464Z,7.13
2023-01-22T08:10:21.755Z,5.60
2023-01-22T08:12:48.979Z,6.25
2023-01-22T08:15:16.418Z,5.60
2023-01-22T08:17:43.677Z,5.28
2023-01-22T08:20:11.251Z,5.82
2023-01-22T08:22:38.833Z,5.83
2023-01-22T08:25:06.389Z,5.43
2023-01-22T08:27:35.156Z,6.20
2023-01-22T08:30:03.540Z,5.60
2023-01-22T08:32:31.132Z,4.43
2023-01-22T08:34:58.554Z,6.23
2023-01-22T08:37:26.223Z,5.97
2023-01-22T08:39:53.457Z,6.47
2023-01-22T08:42:20.672Z,6.53
2023-01-22T08:44:48.117Z,6.50
2023-01-22T08:47:15.410Z,6.30
2023-01-22T08:49:42.304Z,7.43
2023-01-22T08:52:09.699Z,6.93
2023-01-22T08:54:36.968Z,6.53
2023-01-22T08:57:04.507Z,6.95
2023-01-22T08:59:31.375Z,7.70
2023-01-22T09:02:02.027Z,6.88
2023-01-22T09:04:29.499Z,7.40
2023-01-22T09:06:56.829Z,6.97
2023-01-22T09:09:24.237Z,6.53
2023-01-22T09:11:51.074Z,6.63
2023-01-22T09:14:18.494Z,6.63
2023-01-22T09:16:45.777Z,6.28
2023-01-22T09:19:13.080Z,6.35
2023-01-22T09:21:40.393Z,9.38
2023-01-22T09:24:07.783Z,6.93
2023-01-22T09:26:37.159Z,6.03
2023-01-22T09:29:05.862Z,6.72
2023-01-22T09:31:34.101Z,6.10
2023-01-22T09:34:01.474Z,6.38
2023-01-22T09:36:28.724Z,6.63
2023-01-22T09:38:56.203Z,7.28
2023-01-22T09:41:37.770Z,6.07
2023-01-22T09:44:17.285Z,6.57
2023-01-22T09:47:01.265Z,5.25
2023-01-22T09:49:38.844Z,5.80
2023-01-22T09:52:06.598Z,5.57
2023-01-22T09:54:33.859Z,6.10
2023-01-22T09:57:04.318Z,6.13
2023-01-22T09:59:47.413Z,5.20
2023-01-22T10:02:23.660Z,6.37
2023-01-22T10:04:56.410Z,5.35
2023-01-22T10:07:33.807Z,5.93
2023-01-22T10:10:15.710Z,5.18
2023-01-22T10:12:43.319Z,6.07
2023-01-22T10:15:17.256Z,6.73
2023-01-22T10:17:44.979Z,5.63
2023-01-22T10:20:13.741Z,4.57
2023-01-22T10:22:40.916Z,7.25
2023-01-22T10:25:14.491Z,6.85
2023-01-22T10:27:42.108Z,5.77
2023-01-22T10:30:14.899Z,5.28
2023-01-22T10:32:42.236Z,4.63
2023-01-22T10:35:11.778Z,7.05
2023-01-22T10:37:47.087Z,7.30
2023-01-22T10:40:43.214Z,6.20
2023-01-22T10:43:17.814Z,7.18
2023-01-22T10:45:56.503Z,9.13
2023-01-22T10:48:24.008Z,8.73
2023-01-22T10:51:16.735Z,6.53
2023-01-22T10:53:55.343Z,6.07
2023-01-22T10:56:30.363Z,9.18
2023-01-22T10:58:59.934Z,6.85
2023-01-22T11:01:36.456Z,6.07
2023-01-22T11:04:13.752Z,5.82
2023-01-22T11:07:01.913Z,5.33
2023-01-22T11:09:49.220Z,5.07
2023-01-22T11:12:54.202Z,6.03
2023-01-22T11:15:24.105Z,4.88
2023-01-22T11:17:54.687Z,4.97
2023-01-22T11:20:42.700Z,5.00
2023-01-22T11:23:09.921Z,5.47
2023-01-22T11:25:49.766Z,5.43
2023-01-22T11:29:00.340Z,4.85
2023-01-22T11:31:33.507Z,5.05
2023-01-22T11:34:12.950Z,5.33
2023-01-22T11:37:09.517Z,5.25
2023-01-22T11:40:02.150Z,5.40
2023-01-22T11:42:29.364Z,5.43
2023-01-22T11:45:19.784Z,5.50
2023-01-22T11:48:41.858Z,4.90
2023-01-22T11:51:28.286Z,5.53
2023-01-22T11:54:16.413Z,4.05
2023-01-22T11:56:49.663Z,5.28
2023-01-22T11:59:38.526Z,5.18
2023-01-22T12:02:19.826Z,4.97
2023-01-22T12:04:47.130Z,5.38
2023-01-22T12:07:14.540Z,5.28
2023-01-22T12:09:59.225Z,4.93
2023-01-22T12:13:02.886Z,5.47
2023-01-22T12:15:48.728Z,5.40
2023-01-22T12:18:33.605Z,5.38
2023-01-22T12:21:07.068Z,5.97
2023-01-22T12:23:42.312Z,5.07
2023-01-22T12:26:23.206Z,7.05
2023-01-22T12:29:16.603Z,6.10
2023-01-22T12:31:51.822Z,6.63
2023-01-22T12:35:00.382Z,6.38
2023-01-22T12:37:42.427Z,6.95
2023-01-22T12:40:43.651Z,7.60
2023-01-22T12:43:11.130Z,6.17
2023-01-22T12:46:04.961Z,6.10
2023-01-22T12:48:48.134Z,6.22
2023-01-22T12:51:42.182Z,6.10
2023-01-22T12:54:09.653Z,5.95
2023-01-22T12:56:36.915Z,5.90
2023-01-22T12:59:04.168Z,5.05
2023-01-22T13:01:36.273Z,6.45
2023-01-22T13:04:07.764Z,7.25
2023-01-22T13:06:35.149Z,7.25
2023-01-22T13:09:04.117Z,7.23
2023-01-22T13:11:35.879Z,7.82
2023-01-22T13:14:23.699Z,8.63
2023-01-22T13:17:03.587Z,6.38
2023-01-22T13:19:35.938Z,7.25
2023-01-22T13:22:03.548Z,7.67
2023-01-22T13:24:30.787Z,5.88
2023-01-22T13:27:00.972Z,6.60
2023-01-22T13:29:32.867Z,7.32
2023-01-22T13:32:02.770Z,6.57
2023-01-22T13:34:30.322Z,6.57
2023-01-22T13:36:57.306Z,6.65
2023-01-22T13:39:24.506Z,8.02
2023-01-22T13:41:53.893Z,6.53
2023-01-22T13:44:24.599Z,6.78
2023-01-22T13:46:52.590Z,6.23
2023-01-22T13:49:28.813Z,7.30
2023-01-22T13:52:01.892Z,6.70
2023-01-22T13:54:45.115Z,5.82
2023-01-22T13:57:18.486Z,6.80
2023-01-22T13:59:58.727Z,6.67
2023-01-22T14:02:29.985Z,7.05
2023-01-22T14:04:57.439Z,7.57
2023-01-22T14:07:33.757Z,6.57
2023-01-22T14:10:22.613Z,8.98
2023-01-22T14:13:07.564Z,8.00
2023-01-22T14:15:35.074Z,6.22
2023-01-22T14:18:10.771Z,7.28
2023-01-22T14:20:42.009Z,6.93
2023-01-22T14:23:09.247Z,6.40
2023-01-22T14:25:41.755Z,7.00
2023-01-22T14:28:09.099Z,6.68
2023-01-22T14:30:36.417Z,7.43
2023-01-22T14:33:04.047Z,7.28
2023-01-22T14:35:31.600Z,6.93
2023-01-22T14:37:58.947Z,7.37
2023-01-22T14:40:26.808Z,7.20
2023-01-22T14:42:54.320Z,7.32
2023-01-22T14:45:21.677Z,8.55
2023-01-22T14:47:53.105Z,8.85
2023-01-22T14:50:21.438Z,8.53
2023-01-22T14:52:49.193Z,8.93
2023-01-22T14:55:17.037Z,8.48
2023-01-22T14:57:44.753Z,8.68
2023-01-22T15:00:13.857Z,7.60
2023-01-22T15:02:41.711Z,9.20
2023-01-22T15:05:09.858Z,8.98
2023-01-22T15:07:37.788Z,8.30
2023-01-22T15:10:06.801Z,8.43
2023-01-22T15:12:34.225Z,8.15
2023-01-22T15:15:01.520Z,7.80
2023-01-22T15:17:28.733Z,7.57
2023-01-22T15:19:57.128Z,7.80
2023-01-22T15:22:24.516Z,8.07
2023-01-22T15:24:51.712Z,8.60
2023-01-22T15:27:19.072Z,8.27
2023-01-22T15:29:46.548Z,7.75
2023-01-22T15:32:14.494Z,7.82
2023-01-22T15:34:41.766Z,7.95
2023-01-22T15:37:09.187Z,8.50
2023-01-22T15:39:36.318Z,8.77
2023-01-22T15:42:03.585Z,8.27
2023-01-22T15:44:30.836Z,8.68
2023-01-22T15:47:00.872Z,9.75
2023-01-22T15:49:27.974Z,10.05
2023-01-22T15:51:55.391Z,9.77
2023-01-22T15:54:25.541Z,10.00
2023-01-22T15:56:53.136Z,8.55
2023-01-22T15:59:20.329Z,9.25
2023-01-22T16:01:47.890Z,9.00
2023-01-22T16:04:15.092Z,10.10
2023-01-22T16:06:42.364Z,9.90
2023-01-22T16:09:09.248Z,10.20
2023-01-22T16:11:36.309Z,10.43
2023-01-22T16:14:03.625Z,10.10
2023-01-22T16:16:32.983Z,9.20
2023-01-22T16:19:02.068Z,9.77
2023-01-22T16:21:29.672Z,10.25
2023-01-22T16:24:00.666Z,10.18
2023-01-22T16:26:30.875Z,17.83
2023-01-22T16:28:59.209Z,14.10
2023-01-22T16:31:29.264Z,11.32
2023-01-22T16:33:58.784Z,10.60
2023-01-22T16:36:28.998Z,10.00
2023-01-22T16:38:56.694Z,10.68
2023-01-22T16:41:25.522Z,11.90
2023-01-22T16:43:55.607Z,12.40
2023-01-22T16:46:24.354Z,12.60
2023-01-22T16:49:19.045Z,11.50
2023-01-22T16:51:57.602Z,12.57
2023-01-22T16:54:36.013Z,12.40
2023-01-22T16:57:05.295Z,9.98
2023-01-22T16:59:33.772Z,12.13
2023-01-22T17:02:02.765Z,11.40
2023-01-22T17:04:30.164Z,11.52
2023-01-22T17:06:58.380Z,13.17
2023-01-22T17:09:27.824Z,13.77
2023-01-22T17:11:58.103Z,13.65
2023-01-22T17:14:27.123Z,13.73
2023-01-22T17:16:54.111Z,12.88
2023-01-22T17:19:21.298Z,21.03
2023-01-22T17:21:51.979Z,16.88
2023-01-22T17:24:19.515Z,13.00
2023-01-22T17:26:48.150Z,14.38
2023-01-22T17:29:15.588Z,12.95
2023-01-22T17:31:43.196Z,11.17
2023-01-22T17:34:11.788Z,12.65
2023-01-22T17:36:40.148Z,14.70
2023-01-22T17:39:07.825Z,16.00
2023-01-22T17:41:35.175Z,17.30
2023-01-22T17:44:02.429Z,17.73
2023-01-22T17:46:32.158Z,18.85
2023-01-22T17:49:01.118Z,15.95
2023-01-22T17:51:29.119Z,14.50
2023-01-22T17:53:57.801Z,13.02
2023-01-22T17:56:27.569Z,11.10
2023-01-22T17:58:57.064Z,12.70
2023-01-22T18:01:27.958Z,14.15
2023-01-22T18:03:58.103Z,12.25
2023-01-22T18:06:25.564Z,11.05
2023-01-22T18:08:52.872Z,10.77
2023-01-22T18:11:22.899Z,10.48
2023-01-22T18:13:50.603Z,11.48
2023-01-22T18:16:18.902Z,20.17
2023-01-22T18:18:46.318Z,17.75
2023-01-22T18:21:16.417Z,13.93
2023-01-22T18:23:45.019Z,12.77
2023-01-22T18:26:12.834Z,14.65
2023-01-22T18:28:40.122Z,14.20
2023-01-22T18:31:12.744Z,13.95
2023-01-22T18:33:40.624Z,12.77
2023-01-22T18:36:13.092Z,12.38
2023-01-22T18:38:41.048Z,13.18
2023-01-22T18:41:13.599Z,14.60
2023-01-22T18:43:41.178Z,14.93
2023-01-22T18:46:12.893Z,14.20
2023-01-22T18:48:41.471Z,14.27
2023-01-22T18:51:10.681Z,13.20
2023-01-22T18:53:40.309Z,15.32
2023-01-22T18:56:09.844Z,14.90
2023-01-22T18:58:37.920Z,13.40
2023-01-22T19:01:08.989Z,14.40
2023-01-22T19:03:36.642Z,13.30
2023-01-22T19:06:14.429Z,12.65
2023-01-22T19:08:46.942Z,14.52
2023-01-22T19:11:15.824Z,13.17
2023-01-22T19:13:44.939Z,11.75
2023-01-22T19:16:14.933Z,13.15
2023-01-22T19:18:42.596Z,11.20
2023-01-22T19:21:13.538Z,10.93
2023-01-22T19:23:41.110Z,11.53
2023-01-22T19:26:16.045Z,10.93
2023-01-22T19:28:43.441Z,13.07
2023-01-22T19:31:32.463Z,11.80
2023-01-22T19:34:00.519Z,11.27
2023-01-22T19:36:29.817Z,12.43
2023-01-22T19:38:58.360Z,11.32
2023-01-22T19:41:26.588Z,11.40
2023-01-22T19:43:59.151Z,9.68
2023-01-22T19:46:27.565Z,9.70
2023-01-22T19:48:55.275Z,9.63
2023-01-22T19:51:24.637Z,9.45
2023-01-22T19:53:51.981Z,10.15
2023-01-22T19:56:25.276Z,10.57
2023-01-22T19:58:54.160Z,9.77
2023-01-22T20:01:23.110Z,8.97
2023-01-22T20:03:50.408Z,9.35
2023-01-22T20:06:20.470Z,11.77
2023-01-22T20:08:47.884Z,12.00
2023-01-22T20:11:15.672Z,14.63
2023-01-22T20:13:43.315Z,13.67
2023-01-22T20:16:21.384Z,11.48
2023-01-22T20:18:49.468Z,12.15
2023-01-22T20:21:20.481Z,12.85
2023-01-22T20:23:48.754Z,10.43
2023-01-22T20:26:17.667Z,11.13
2023-01-22T20:28:45.510Z,11.13
2023-01-22T20:31:19.861Z,11.52
2023-01-22T20:33:47.066Z,11.05
2023-01-22T20:36:16.091Z,10.40
2023-01-22T20:38:45.675Z,10.37
2023-01-22T20:41:13.020Z,10.85
2023-01-22T20:43:42.303Z,10.02
2023-01-22T20:46:15.908Z,10.95
2023-01-22T20:48:43.577Z,7.70
2023-01-22T20:51:15.293Z,11.07
2023-01-22T20:53:43.193Z,9.95
2023-01-22T20:56:13.887Z,10.05
2023-01-22T20:58:41.240Z,11.65
2023-01-22T21:01:18.930Z,11.50
2023-01-22T21:03:47.994Z,10.23
2023-01-22T21:06:17.800Z,12.27
2023-01-22T21:08:49.493Z,15.23
2023-01-22T21:11:20.294Z,12.13
2023-01-22T21:13:49.248Z,13.18
2023-01-22T21:16:18.757Z,13.23
2023-01-22T21:18:46.576Z,14.35
2023-01-22T21:21:19.522Z,12.32
2023-01-22T21:23:48.474Z,11.48
2023-01-22T21:26:18.389Z,10.70
2023-01-22T21:28:48.544Z,10.43
2023-01-22T21:31:19.122Z,10.88
2023-01-22T21:33:47.054Z,11.32
2023-01-22T21:36:16.436Z,10.55
2023-01-22T21:38:46.148Z,9.95
2023-01-22T21:41:18.542Z,9.87
2023-01-22T21:44:06.030Z,11.52
2023-01-22T21:46:38.804Z,11.90
2023-01-22T21:49:16.989Z,11.07
2023-01-22T21:51:55.469Z,11.52
2023-01-22T21:54:25.405Z,11.17
2023-01-22T21:56:52.922Z,11.20
2023-01-22T21:59:20.335Z,10.82
2023-01-22T22:01:50.175Z,10.52
2023-01-22T22:04:18.027Z,9.80
2023-01-22T22:06:45.843Z,10.50
2023-01-22T22:09:15.611Z,10.27
2023-01-22T22:11:43.221Z,10.73
2023-01-22T22:14:12.528Z,10.82
2023-01-22T22:16:39.795Z,11.18
2023-01-22T22:19:07.813Z,10.83
2023-01-22T22:21:35.813Z,10.93
2023-01-22T22:24:03.146Z,8.95
2023-01-22T22:26:30.339Z,11.10
2023-01-22T22:28:57.617Z,10.50
2023-01-22T22:31:25.350Z,9.77
2023-01-22T22:33:54.593Z,8.32
2023-01-22T22:36:25.034Z,10.05
2023-01-22T22:38:52.610Z,9.07
2023-01-22T22:41:25.669Z,9.30
2023-01-22T22:43:54.187Z,10.50
2023-01-22T22:46:29.764Z,9.45
2023-01-22T22:48:59.613Z,9.95
2023-01-22T22:51:35.721Z,9.23
2023-01-22T22:54:11.375Z,9.30
2023-01-22T22:56:38.713Z,7.93
2023-01-22T22:59:06.009Z,9.25
2023-01-22T23:01:33.335Z,8.40
2023-01-22T23:04:01.150Z,10.43
2023-01-22T23:06:30.518Z,9.60
2023-01-22T23:09:19.360Z,10.63
2023-01-22T23:11:47.110Z,10.57
2023-01-22T23:14:14.491Z,10.13
2023-01-22T23:16:43.435Z,9.70
2023-01-22T23:19:28.443Z,9.73
2023-01-22T23:21:57.693Z,9.80
2023-01-22T23:24:25.526Z,9.10
2023-01-22T23:26:52.849Z,8.52
2023-01-22T23:29:22.564Z,8.35
2023-01-22T23:31:50.037Z,8.45
2023-01-22T23:34:20.713Z,9.03
2023-01-22T23:36:48.433Z,9.05
2023-01-22T23:39:17.930Z,9.95
2023-01-22T23:41:45.419Z,9.00
2023-01-22T23:44:13.116Z,9.38
2023-01-22T23:46:41.179Z,9.43
2023-01-22T23:49:08.399Z,9.05
2023-01-22T23:51:38.225Z,8.85
2023-01-22T23:54:07.531Z,9.32
2023-01-22T23:56:35.138Z,9.55
2023-01-22T23:59:02.091Z,9.33
